Other Surface Observations
Issued by NWS Missoula, MT

Home | Current Version | Previous Version | Text Only | Print | Product List | Glossary On
Versions: 1 2 3 4 5 6 7 8 9 10 11 12 13 14 15 16 17 18 19 20 21 22 23 24 25 26 27 28 29 30 31 32 33 34 35 36 37 38 39 40 41 42 43 44 45 46 47 48 49 50
000
SXUS55 KMSO 181013
OSOMSO
MONTANA AWOS SUMMARY
NATIONAL WEATHER SERVICE MISSOULA MT
413 AM MDT WED OCT 18 2017

Montana AWOS Reports

PLAINS      |KS34 180955Z AUTO 00000KT 25SM 06/M06 A3005 RMK AO1 T00611055
ROUNDUP     |KRPX 180955Z AUTO 35009KT 40SM 09/M06 A2987 RMK AO1 T00891060
SCOBEY      |K9S2 180955Z AUTO 28020G25KT 40SM 06/M07 A2979 RMK AO1 T00611066
EKALAKA     |K97M 180955Z AUTO 32012G19KT 25SM 11/M04 A2989 RMK AO1 T01061038




USA.gov is the U.S. government's official web portal to all federal, state and local government web resources and services.